sensor_id;sensor_type;location;lat;lon;timestamp;P1;durP1;ratioP1;P2;durP2;ratioP2
77214;SDS011;66210;53.282;9.864;2023-08-20T00:00:59;10.15;;;5.07;;
77214;SDS011;66210;53.282;9.864;2023-08-20T00:03:29;11.25;;;5.43;;
77214;SDS011;66210;53.282;9.864;2023-08-20T00:05:56;10.48;;;5.03;;
77214;SDS011;66210;53.282;9.864;2023-08-20T00:08:23;8.23;;;5.18;;
77214;SDS011;66210;53.282;9.864;2023-08-20T00:10:49;8.18;;;4.60;;
77214;SDS011;66210;53.282;9.864;2023-08-20T00:13:16;8.25;;;4.82;;
77214;SDS011;66210;53.282;9.864;2023-08-20T00:15:43;8.02;;;4.53;;
77214;SDS011;66210;53.282;9.864;2023-08-20T00:18:10;4.95;;;4.13;;
77214;SDS011;66210;53.282;9.864;2023-08-20T00:20:37;10.70;;;4.97;;
77214;SDS011;66210;53.282;9.864;2023-08-20T00:23:04;9.85;;;5.40;;
77214;SDS011;66210;53.282;9.864;2023-08-20T00:25:31;7.05;;;5.05;;
77214;SDS011;66210;53.282;9.864;2023-08-20T00:27:58;6.97;;;4.47;;
77214;SDS011;66210;53.282;9.864;2023-08-20T00:30:25;8.48;;;4.93;;
77214;SDS011;66210;53.282;9.864;2023-08-20T00:32:51;8.00;;;4.60;;
77214;SDS011;66210;53.282;9.864;2023-08-20T00:35:19;9.55;;;4.80;;
77214;SDS011;66210;53.282;9.864;2023-08-20T00:37:46;7.32;;;4.68;;
77214;SDS011;66210;53.282;9.864;2023-08-20T00:40:12;7.80;;;5.00;;
77214;SDS011;66210;53.282;9.864;2023-08-20T00:42:39;7.70;;;4.63;;
77214;SDS011;66210;53.282;9.864;2023-08-20T00:45:06;6.30;;;4.25;;
77214;SDS011;66210;53.282;9.864;2023-08-20T00:47:33;9.27;;;4.90;;
77214;SDS011;66210;53.282;9.864;2023-08-20T00:50:01;9.45;;;4.10;;
77214;SDS011;66210;53.282;9.864;2023-08-20T00:52:33;5.50;;;3.92;;
77214;SDS011;66210;53.282;9.864;2023-08-20T00:55:06;8.50;;;3.95;;
77214;SDS011;66210;53.282;9.864;2023-08-20T00:57:35;6.75;;;4.10;;
77214;SDS011;66210;53.282;9.864;2023-08-20T01:00:03;6.93;;;4.38;;
77214;SDS011;66210;53.282;9.864;2023-08-20T01:02:33;8.52;;;4.32;;
77214;SDS011;66210;53.282;9.864;2023-08-20T01:05:01;7.68;;;4.20;;
77214;SDS011;66210;53.282;9.864;2023-08-20T01:08:06;12.10;;;4.20;;
77214;SDS011;66210;53.282;9.864;2023-08-20T01:10:34;7.78;;;4.22;;
77214;SDS011;66210;53.282;9.864;2023-08-20T01:13:19;8.43;;;4.28;;
77214;SDS011;66210;53.282;9.864;2023-08-20T01:15:47;11.38;;;4.65;;
77214;SDS011;66210;53.282;9.864;2023-08-20T01:18:13;11.82;;;4.43;;
77214;SDS011;66210;53.282;9.864;2023-08-20T01:20:41;13.20;;;4.47;;
77214;SDS011;66210;53.282;9.864;2023-08-20T01:26:48;6.50;;;4.47;;
77214;SDS011;66210;53.282;9.864;2023-08-20T01:29:22;9.93;;;4.35;;
77214;SDS011;66210;53.282;9.864;2023-08-20T01:31:50;11.07;;;5.65;;
77214;SDS011;66210;53.282;9.864;2023-08-20T01:34:18;11.18;;;4.43;;
77214;SDS011;66210;53.282;9.864;2023-08-20T01:36:45;8.48;;;4.60;;
77214;SDS011;66210;53.282;9.864;2023-08-20T01:39:12;7.78;;;4.63;;
77214;SDS011;66210;53.282;9.864;2023-08-20T01:41:40;12.73;;;4.60;;
77214;SDS011;66210;53.282;9.864;2023-08-20T01:44:07;8.52;;;4.05;;
77214;SDS011;66210;53.282;9.864;2023-08-20T01:46:34;7.15;;;4.35;;
77214;SDS011;66210;53.282;9.864;2023-08-20T01:49:00;13.35;;;5.82;;
77214;SDS011;66210;53.282;9.864;2023-08-20T01:51:28;12.48;;;5.45;;
77214;SDS011;66210;53.282;9.864;2023-08-20T01:53:55;12.45;;;5.10;;
77214;SDS011;66210;53.282;9.864;2023-08-20T01:56:21;8.85;;;4.95;;
77214;SDS011;66210;53.282;9.864;2023-08-20T01:58:48;13.45;;;5.97;;
77214;SDS011;66210;53.282;9.864;2023-08-20T02:01:15;8.07;;;5.32;;
77214;SDS011;66210;53.282;9.864;2023-08-20T02:03:42;12.07;;;6.82;;
77214;SDS011;66210;53.282;9.864;2023-08-20T02:06:08;10.82;;;5.18;;
77214;SDS011;66210;53.282;9.864;2023-08-20T02:08:35;10.82;;;5.35;;
77214;SDS011;66210;53.282;9.864;2023-08-20T02:11:02;13.68;;;6.70;;
77214;SDS011;66210;53.282;9.864;2023-08-20T02:13:30;17.58;;;9.95;;
77214;SDS011;66210;53.282;9.864;2023-08-20T02:16:06;13.73;;;7.53;;
77214;SDS011;66210;53.282;9.864;2023-08-20T02:18:33;19.25;;;10.05;;
77214;SDS011;66210;53.282;9.864;2023-08-20T02:21:00;16.85;;;10.40;;
77214;SDS011;66210;53.282;9.864;2023-08-20T02:23:27;16.38;;;8.93;;
77214;SDS011;66210;53.282;9.864;2023-08-20T02:25:53;25.73;;;13.15;;
77214;SDS011;66210;53.282;9.864;2023-08-20T02:28:20;22.48;;;12.27;;
77214;SDS011;66210;53.282;9.864;2023-08-20T02:30:47;16.85;;;11.50;;
77214;SDS011;66210;53.282;9.864;2023-08-20T02:33:14;17.60;;;10.98;;
77214;SDS011;66210;53.282;9.864;2023-08-20T02:35:41;22.20;;;11.75;;
77214;SDS011;66210;53.282;9.864;2023-08-20T02:38:07;17.42;;;10.10;;
77214;SDS011;66210;53.282;9.864;2023-08-20T02:40:40;20.38;;;13.48;;
77214;SDS011;66210;53.282;9.864;2023-08-20T02:43:07;20.63;;;13.05;;
77214;SDS011;66210;53.282;9.864;2023-08-20T02:45:39;20.33;;;13.00;;
77214;SDS011;66210;53.282;9.864;2023-08-20T02:48:07;20.75;;;12.57;;
77214;SDS011;66210;53.282;9.864;2023-08-20T02:50:35;23.23;;;12.82;;
77214;SDS011;66210;53.282;9.864;2023-08-20T02:55:33;14.13;;;9.32;;
77214;SDS011;66210;53.282;9.864;2023-08-20T02:58:00;18.85;;;13.05;;
77214;SDS011;66210;53.282;9.864;2023-08-20T03:00:26;19.20;;;13.07;;
77214;SDS011;66210;53.282;9.864;2023-08-20T03:02:54;14.23;;;9.95;;
77214;SDS011;66210;53.282;9.864;2023-08-20T03:05:20;21.52;;;13.85;;
77214;SDS011;66210;53.282;9.864;2023-08-20T03:07:47;15.65;;;10.93;;
77214;SDS011;66210;53.282;9.864;2023-08-20T03:10:14;20.73;;;12.70;;
77214;SDS011;66210;53.282;9.864;2023-08-20T03:12:40;19.05;;;12.75;;
77214;SDS011;66210;53.282;9.864;2023-08-20T03:15:07;28.38;;;15.38;;
77214;SDS011;66210;53.282;9.864;2023-08-20T03:17:34;18.50;;;12.85;;
77214;SDS011;66210;53.282;9.864;2023-08-20T03:20:01;27.65;;;14.32;;
77214;SDS011;66210;53.282;9.864;2023-08-20T03:22:31;21.77;;;13.27;;
77214;SDS011;66210;53.282;9.864;2023-08-20T03:24:57;16.58;;;10.43;;
77214;SDS011;66210;53.282;9.864;2023-08-20T03:27:24;25.50;;;14.30;;
77214;SDS011;66210;53.282;9.864;2023-08-20T03:29:51;22.55;;;14.73;;
77214;SDS011;66210;53.282;9.864;2023-08-20T03:32:18;17.33;;;11.65;;
77214;SDS011;66210;53.282;9.864;2023-08-20T03:34:44;16.70;;;12.40;;
77214;SDS011;66210;53.282;9.864;2023-08-20T03:37:11;17.77;;;12.90;;
77214;SDS011;66210;53.282;9.864;2023-08-20T03:39:38;21.70;;;13.63;;
77214;SDS011;66210;53.282;9.864;2023-08-20T03:42:05;21.75;;;13.95;;
77214;SDS011;66210;53.282;9.864;2023-08-20T03:44:31;18.92;;;12.63;;
77214;SDS011;66210;53.282;9.864;2023-08-20T03:46:58;19.70;;;14.18;;
77214;SDS011;66210;53.282;9.864;2023-08-20T03:49:25;13.85;;;11.00;;
77214;SDS011;66210;53.282;9.864;2023-08-20T03:51:51;16.40;;;11.73;;
77214;SDS011;66210;53.282;9.864;2023-08-20T03:54:18;18.00;;;12.35;;
77214;SDS011;66210;53.282;9.864;2023-08-20T03:56:44;24.70;;;13.82;;
77214;SDS011;66210;53.282;9.864;2023-08-20T03:59:11;22.05;;;14.02;;
77214;SDS011;66210;53.282;9.864;2023-08-20T04:01:38;19.63;;;13.10;;
77214;SDS011;66210;53.282;9.864;2023-08-20T04:04:05;18.08;;;12.48;;
77214;SDS011;66210;53.282;9.864;2023-08-20T04:06:31;15.00;;;10.82;;
77214;SDS011;66210;53.282;9.864;2023-08-20T04:08:58;19.77;;;12.85;;
77214;SDS011;66210;53.282;9.864;2023-08-20T04:11:25;20.30;;;11.95;;
77214;SDS011;66210;53.282;9.864;2023-08-20T04:13:52;14.73;;;10.75;;
77214;SDS011;66210;53.282;9.864;2023-08-20T04:16:19;15.80;;;11.65;;
77214;SDS011;66210;53.282;9.864;2023-08-20T04:18:45;30.23;;;13.75;;
77214;SDS011;66210;53.282;9.864;2023-08-20T04:21:12;16.13;;;11.30;;
77214;SDS011;66210;53.282;9.864;2023-08-20T04:23:39;18.98;;;11.73;;
77214;SDS011;66210;53.282;9.864;2023-08-20T04:26:07;21.73;;;13.57;;
77214;SDS011;66210;53.282;9.864;2023-08-20T04:28:34;21.75;;;12.88;;
77214;SDS011;66210;53.282;9.864;2023-08-20T04:31:00;19.40;;;12.10;;
77214;SDS011;66210;53.282;9.864;2023-08-20T04:33:27;16.88;;;10.18;;
77214;SDS011;66210;53.282;9.864;2023-08-20T04:35:54;29.90;;;12.20;;
77214;SDS011;66210;53.282;9.864;2023-08-20T04:38:20;16.23;;;10.55;;
77214;SDS011;66210;53.282;9.864;2023-08-20T04:40:47;18.55;;;11.75;;
77214;SDS011;66210;53.282;9.864;2023-08-20T04:43:15;19.20;;;11.38;;
77214;SDS011;66210;53.282;9.864;2023-08-20T04:45:41;16.75;;;10.23;;
77214;SDS011;66210;53.282;9.864;2023-08-20T04:48:08;13.70;;;9.82;;
77214;SDS011;66210;53.282;9.864;2023-08-20T04:50:35;19.90;;;11.13;;
77214;SDS011;66210;53.282;9.864;2023-08-20T04:53:02;22.55;;;11.05;;
77214;SDS011;66210;53.282;9.864;2023-08-20T04:55:28;73.72;;;12.98;;
77214;SDS011;66210;53.282;9.864;2023-08-20T04:57:57;29.23;;;12.80;;
77214;SDS011;66210;53.282;9.864;2023-08-20T05:00:24;35.60;;;11.25;;
77214;SDS011;66210;53.282;9.864;2023-08-20T05:02:51;49.58;;;11.88;;
77214;SDS011;66210;53.282;9.864;2023-08-20T05:05:18;49.88;;;11.15;;
77214;SDS011;66210;53.282;9.864;2023-08-20T05:07:44;27.70;;;11.52;;
77214;SDS011;66210;53.282;9.864;2023-08-20T05:10:11;48.22;;;11.73;;
77214;SDS011;66210;53.282;9.864;2023-08-20T05:12:37;40.20;;;10.75;;
77214;SDS011;66210;53.282;9.864;2023-08-20T05:15:04;76.65;;;11.93;;
77214;SDS011;66210;53.282;9.864;2023-08-20T05:17:31;22.20;;;9.82;;
77214;SDS011;66210;53.282;9.864;2023-08-20T05:19:58;16.52;;;11.70;;
77214;SDS011;66210;53.282;9.864;2023-08-20T05:22:24;26.10;;;10.85;;
77214;SDS011;66210;53.282;9.864;2023-08-20T05:24:51;85.63;;;11.77;;
77214;SDS011;66210;53.282;9.864;2023-08-20T05:27:18;126.55;;;12.80;;
77214;SDS011;66210;53.282;9.864;2023-08-20T05:29:44;29.65;;;12.13;;
77214;SDS011;66210;53.282;9.864;2023-08-20T05:32:11;65.97;;;13.50;;
77214;SDS011;66210;53.282;9.864;2023-08-20T05:34:38;81.70;;;14.68;;
77214;SDS011;66210;53.282;9.864;2023-08-20T05:37:05;101.78;;;13.20;;
77214;SDS011;66210;53.282;9.864;2023-08-20T05:39:36;79.75;;;12.48;;
77214;SDS011;66210;53.282;9.864;2023-08-20T05:42:04;58.72;;;10.93;;
77214;SDS011;66210;53.282;9.864;2023-08-20T05:44:31;19.10;;;11.20;;
77214;SDS011;66210;53.282;9.864;2023-08-20T05:46:58;37.33;;;12.48;;
77214;SDS011;66210;53.282;9.864;2023-08-20T05:49:25;19.02;;;10.82;;
77214;SDS011;66210;53.282;9.864;2023-08-20T05:51:55;10.77;;;9.32;;
77214;SDS011;66210;53.282;9.864;2023-08-20T05:54:22;30.10;;;12.45;;
77214;SDS011;66210;53.282;9.864;2023-08-20T05:56:48;22.75;;;12.88;;
77214;SDS011;66210;53.282;9.864;2023-08-20T05:59:15;16.80;;;11.43;;
77214;SDS011;66210;53.282;9.864;2023-08-20T06:01:41;21.13;;;11.13;;
77214;SDS011;66210;53.282;9.864;2023-08-20T06:04:09;15.63;;;10.85;;
77214;SDS011;66210;53.282;9.864;2023-08-20T06:06:36;16.88;;;11.63;;
77214;SDS011;66210;53.282;9.864;2023-08-20T06:09:02;12.95;;;9.95;;
77214;SDS011;66210;53.282;9.864;2023-08-20T06:11:35;15.55;;;11.07;;
77214;SDS011;66210;53.282;9.864;2023-08-20T06:14:02;15.30;;;10.45;;
77214;SDS011;66210;53.282;9.864;2023-08-20T06:16:29;20.92;;;11.13;;
77214;SDS011;66210;53.282;9.864;2023-08-20T06:18:55;12.57;;;9.98;;
77214;SDS011;66210;53.282;9.864;2023-08-20T06:21:24;14.02;;;10.32;;
77214;SDS011;66210;53.282;9.864;2023-08-20T06:23:50;13.48;;;10.68;;
77214;SDS011;66210;53.282;9.864;2023-08-20T06:26:17;13.73;;;9.57;;
77214;SDS011;66210;53.282;9.864;2023-08-20T06:28:43;13.85;;;9.65;;
77214;SDS011;66210;53.282;9.864;2023-08-20T06:31:10;11.80;;;9.80;;
77214;SDS011;66210;53.282;9.864;2023-08-20T06:33:37;15.68;;;9.10;;
77214;SDS011;66210;53.282;9.864;2023-08-20T06:36:04;12.57;;;9.40;;
77214;SDS011;66210;53.282;9.864;2023-08-20T06:38:31;10.18;;;6.93;;
77214;SDS011;66210;53.282;9.864;2023-08-20T06:40:57;13.85;;;9.52;;
77214;SDS011;66210;53.282;9.864;2023-08-20T06:43:24;12.63;;;8.90;;
77214;SDS011;66210;53.282;9.864;2023-08-20T06:45:50;13.70;;;8.80;;
77214;SDS011;66210;53.282;9.864;2023-08-20T06:48:19;11.68;;;7.00;;
77214;SDS011;66210;53.282;9.864;2023-08-20T06:50:46;11.23;;;7.50;;
77214;SDS011;66210;53.282;9.864;2023-08-20T06:53:13;10.73;;;8.27;;
77214;SDS011;66210;53.282;9.864;2023-08-20T06:55:40;10.23;;;7.32;;
77214;SDS011;66210;53.282;9.864;2023-08-20T06:58:07;11.57;;;7.88;;
77214;SDS011;66210;53.282;9.864;2023-08-20T07:00:34;11.90;;;6.18;;
77214;SDS011;66210;53.282;9.864;2023-08-20T07:03:02;10.65;;;6.60;;
77214;SDS011;66210;53.282;9.864;2023-08-20T07:05:30;11.15;;;6.65;;
77214;SDS011;66210;53.282;9.864;2023-08-20T07:07:57;8.27;;;5.35;;
77214;SDS011;66210;53.282;9.864;2023-08-20T07:10:24;6.57;;;4.93;;
77214;SDS011;66210;53.282;9.864;2023-08-20T07:12:51;9.57;;;5.75;;
77214;SDS011;66210;53.282;9.864;2023-08-20T07:15:17;7.90;;;5.13;;
77214;SDS011;66210;53.282;9.864;2023-08-20T07:17:44;10.88;;;5.15;;
77214;SDS011;66210;53.282;9.864;2023-08-20T07:20:12;10.73;;;5.03;;
77214;SDS011;66210;53.282;9.864;2023-08-20T07:22:38;9.02;;;5.05;;
77214;SDS011;66210;53.282;9.864;2023-08-20T07:25:05;8.85;;;5.25;;
77214;SDS011;66210;53.282;9.864;2023-08-20T07:27:35;5.60;;;4.60;;
77214;SDS011;66210;53.282;9.864;2023-08-20T07:30:04;7.75;;;4.85;;
77214;SDS011;66210;53.282;9.864;2023-08-20T07:32:31;8.57;;;5.57;;
77214;SDS011;66210;53.282;9.864;2023-08-20T07:34:58;9.05;;;4.78;;
77214;SDS011;66210;53.282;9.864;2023-08-20T07:37:24;8.25;;;5.10;;
77214;SDS011;66210;53.282;9.864;2023-08-20T07:39:51;9.02;;;4.65;;
77214;SDS011;66210;53.282;9.864;2023-08-20T07:42:18;10.57;;;4.72;;
77214;SDS011;66210;53.282;9.864;2023-08-20T07:44:44;10.70;;;4.78;;
77214;SDS011;66210;53.282;9.864;2023-08-20T07:47:11;6.75;;;3.85;;
77214;SDS011;66210;53.282;9.864;2023-08-20T07:49:39;8.52;;;3.92;;
77214;SDS011;66210;53.282;9.864;2023-08-20T07:52:05;6.30;;;4.07;;
77214;SDS011;66210;53.282;9.864;2023-08-20T07:54:32;11.77;;;3.97;;
77214;SDS011;66210;53.282;9.864;2023-08-20T07:56:59;8.75;;;3.42;;
77214;SDS011;66210;53.282;9.864;2023-08-20T07:59:25;8.15;;;3.40;;
77214;SDS011;66210;53.282;9.864;2023-08-20T08:01:52;5.53;;;2.97;;
77214;SDS011;66210;53.282;9.864;2023-08-20T08:04:19;7.40;;;3.28;;
77214;SDS011;66210;53.282;9.864;2023-08-20T08:06:46;6.88;;;2.90;;
77214;SDS011;66210;53.282;9.864;2023-08-20T08:09:19;6.03;;;2.92;;
77214;SDS011;66210;53.282;9.864;2023-08-20T08:11:54;7.15;;;2.80;;
77214;SDS011;66210;53.282;9.864;2023-08-20T08:14:21;6.50;;;2.60;;
77214;SDS011;66210;53.282;9.864;2023-08-20T08:16:48;6.30;;;2.60;;
77214;SDS011;66210;53.282;9.864;2023-08-20T08:19:14;9.07;;;2.60;;
77214;SDS011;66210;53.282;9.864;2023-08-20T08:21:42;6.78;;;2.85;;
77214;SDS011;66210;53.282;9.864;2023-08-20T08:24:10;12.40;;;2.97;;
77214;SDS011;66210;53.282;9.864;2023-08-20T08:26:37;8.43;;;2.47;;
77214;SDS011;66210;53.282;9.864;2023-08-20T08:29:04;8.23;;;2.40;;
77214;SDS011;66210;53.282;9.864;2023-08-20T08:31:32;5.80;;;2.58;;
77214;SDS011;66210;53.282;9.864;2023-08-20T08:33:59;5.50;;;2.60;;
77214;SDS011;66210;53.282;9.864;2023-08-20T08:36:26;12.35;;;2.47;;
77214;SDS011;66210;53.282;9.864;2023-08-20T08:38:53;7.43;;;2.90;;
77214;SDS011;66210;53.282;9.864;2023-08-20T08:41:21;8.18;;;2.72;;
77214;SDS011;66210;53.282;9.864;2023-08-20T08:43:50;7.80;;;2.55;;
77214;SDS011;66210;53.282;9.864;2023-08-20T08:46:17;7.93;;;2.75;;
77214;SDS011;66210;53.282;9.864;2023-08-20T08:48:44;10.15;;;2.78;;
77214;SDS011;66210;53.282;9.864;2023-08-20T08:51:12;6.00;;;2.30;;
77214;SDS011;66210;53.282;9.864;2023-08-20T08:53:42;8.18;;;2.63;;
77214;SDS011;66210;53.282;9.864;2023-08-20T08:56:12;5.68;;;2.30;;
77214;SDS011;66210;53.282;9.864;2023-08-20T08:58:40;8.88;;;2.90;;
77214;SDS011;66210;53.282;9.864;2023-08-20T09:01:06;10.40;;;2.70;;
77214;SDS011;66210;53.282;9.864;2023-08-20T09:03:33;7.72;;;2.70;;
77214;SDS011;66210;53.282;9.864;2023-08-20T09:06:00;7.07;;;2.70;;
77214;SDS011;66210;53.282;9.864;2023-08-20T09:08:30;7.80;;;2.83;;
77214;SDS011;66210;53.282;9.864;2023-08-20T09:10:58;10.65;;;2.70;;
77214;SDS011;66210;53.282;9.864;2023-08-20T09:16:06;6.75;;;2.55;;
77214;SDS011;66210;53.282;9.864;2023-08-20T09:18:38;15.93;;;2.78;;
77214;SDS011;66210;53.282;9.864;2023-08-20T09:21:12;7.57;;;2.72;;
77214;SDS011;66210;53.282;9.864;2023-08-20T09:23:39;8.00;;;2.75;;
77214;SDS011;66210;53.282;9.864;2023-08-20T09:26:07;8.95;;;2.90;;
77214;SDS011;66210;53.282;9.864;2023-08-20T09:28:43;8.05;;;2.67;;
77214;SDS011;66210;53.282;9.864;2023-08-20T09:31:12;8.65;;;2.72;;
77214;SDS011;66210;53.282;9.864;2023-08-20T09:33:53;6.22;;;2.72;;
77214;SDS011;66210;53.282;9.864;2023-08-20T09:36:31;6.97;;;3.00;;
77214;SDS011;66210;53.282;9.864;2023-08-20T09:39:00;8.35;;;3.13;;
77214;SDS011;66210;53.282;9.864;2023-08-20T09:41:28;10.35;;;3.03;;
77214;SDS011;66210;53.282;9.864;2023-08-20T09:43:58;10.10;;;3.30;;
77214;SDS011;66210;53.282;9.864;2023-08-20T09:46:26;10.50;;;3.00;;
77214;SDS011;66210;53.282;9.864;2023-08-20T09:48:55;11.43;;;2.78;;
77214;SDS011;66210;53.282;9.864;2023-08-20T09:51:27;9.68;;;3.05;;
77214;SDS011;66210;53.282;9.864;2023-08-20T09:54:00;8.32;;;2.70;;
77214;SDS011;66210;53.282;9.864;2023-08-20T09:56:38;10.02;;;2.92;;
77214;SDS011;66210;53.282;9.864;2023-08-20T09:59:06;13.15;;;3.13;;
77214;SDS011;66210;53.282;9.864;2023-08-20T10:01:33;8.40;;;2.75;;
77214;SDS011;66210;53.282;9.864;2023-08-20T10:04:01;11.27;;;3.33;;
77214;SDS011;66210;53.282;9.864;2023-08-20T10:06:29;11.63;;;2.95;;
77214;SDS011;66210;53.282;9.864;2023-08-20T10:08:59;9.15;;;2.75;;
77214;SDS011;66210;53.282;9.864;2023-08-20T10:11:25;6.47;;;3.42;;
77214;SDS011;66210;53.282;9.864;2023-08-20T10:13:52;6.25;;;2.80;;
77214;SDS011;66210;53.282;9.864;2023-08-20T10:16:20;9.13;;;3.00;;
77214;SDS011;66210;53.282;9.864;2023-08-20T10:18:48;7.78;;;2.75;;
77214;SDS011;66210;53.282;9.864;2023-08-20T10:21:15;9.60;;;2.90;;
77214;SDS011;66210;53.282;9.864;2023-08-20T10:23:42;7.22;;;2.80;;
77214;SDS011;66210;53.282;9.864;2023-08-20T10:26:17;8.13;;;2.83;;
77214;SDS011;66210;53.282;9.864;2023-08-20T10:28:48;6.45;;;2.55;;
77214;SDS011;66210;53.282;9.864;2023-08-20T10:31:16;8.93;;;2.75;;
77214;SDS011;66210;53.282;9.864;2023-08-20T10:36:14;7.18;;;2.67;;
77214;SDS011;66210;53.282;9.864;2023-08-20T10:38:46;7.80;;;2.88;;
77214;SDS011;66210;53.282;9.864;2023-08-20T10:41:13;7.10;;;2.42;;
77214;SDS011;66210;53.282;9.864;2023-08-20T10:43:46;10.48;;;2.55;;
77214;SDS011;66210;53.282;9.864;2023-08-20T10:46:21;7.05;;;2.85;;
77214;SDS011;66210;53.282;9.864;2023-08-20T10:48:56;8.98;;;3.10;;
77214;SDS011;66210;53.282;9.864;2023-08-20T10:51:28;7.57;;;3.03;;
77214;SDS011;66210;53.282;9.864;2023-08-20T10:56:37;10.23;;;3.20;;
77214;SDS011;66210;53.282;9.864;2023-08-20T10:59:08;7.20;;;2.70;;
77214;SDS011;66210;53.282;9.864;2023-08-20T11:01:35;6.40;;;2.72;;
77214;SDS011;66210;53.282;9.864;2023-08-20T11:04:04;11.50;;;3.22;;
77214;SDS011;66210;53.282;9.864;2023-08-20T11:06:33;9.00;;;3.03;;
77214;SDS011;66210;53.282;9.864;2023-08-20T11:09:00;7.63;;;2.78;;
77214;SDS011;66210;53.282;9.864;2023-08-20T11:11:29;8.90;;;2.70;;
77214;SDS011;66210;53.282;9.864;2023-08-20T11:13:56;5.50;;;2.60;;
77214;SDS011;66210;53.282;9.864;2023-08-20T11:16:23;10.32;;;2.60;;
77214;SDS011;66210;53.282;9.864;2023-08-20T11:18:51;7.80;;;2.33;;
77214;SDS011;66210;53.282;9.864;2023-08-20T11:21:27;6.75;;;2.50;;
77214;SDS011;66210;53.282;9.864;2023-08-20T11:23:57;9.68;;;2.53;;
77214;SDS011;66210;53.282;9.864;2023-08-20T11:26:23;8.73;;;3.08;;
77214;SDS011;66210;53.282;9.864;2023-08-20T11:28:52;14.98;;;4.30;;
77214;SDS011;66210;53.282;9.864;2023-08-20T11:31:19;7.32;;;2.90;;
77214;SDS011;66210;53.282;9.864;2023-08-20T11:33:46;7.05;;;3.00;;
77214;SDS011;66210;53.282;9.864;2023-08-20T11:36:17;6.53;;;3.10;;
77214;SDS011;66210;53.282;9.864;2023-08-20T11:38:49;6.32;;;2.60;;
77214;SDS011;66210;53.282;9.864;2023-08-20T11:41:17;8.15;;;2.72;;
77214;SDS011;66210;53.282;9.864;2023-08-20T11:43:44;6.60;;;2.60;;
77214;SDS011;66210;53.282;9.864;2023-08-20T11:46:14;6.25;;;2.80;;
77214;SDS011;66210;53.282;9.864;2023-08-20T11:49:00;6.70;;;2.72;;
77214;SDS011;66210;53.282;9.864;2023-08-20T11:51:37;7.03;;;3.40;;
77214;SDS011;66210;53.282;9.864;2023-08-20T11:54:09;7.18;;;2.88;;
77214;SDS011;66210;53.282;9.864;2023-08-20T11:56:48;6.93;;;2.50;;
77214;SDS011;66210;53.282;9.864;2023-08-20T11:59:16;6.80;;;2.85;;
77214;SDS011;66210;53.282;9.864;2023-08-20T12:01:50;8.15;;;2.80;;
77214;SDS011;66210;53.282;9.864;2023-08-20T12:04:18;6.13;;;2.80;;
77214;SDS011;66210;53.282;9.864;2023-08-20T12:06:44;7.65;;;2.55;;
77214;SDS011;66210;53.282;9.864;2023-08-20T12:09:28;8.48;;;2.75;;
77214;SDS011;66210;53.282;9.864;2023-08-20T12:11:55;6.78;;;2.83;;
77214;SDS011;66210;53.282;9.864;2023-08-20T12:14:22;6.80;;;2.67;;
77214;SDS011;66210;53.282;9.864;2023-08-20T12:16:49;10.02;;;2.85;;
77214;SDS011;66210;53.282;9.864;2023-08-20T12:19:17;5.68;;;2.70;;
77214;SDS011;66210;53.282;9.864;2023-08-20T12:21:44;8.57;;;3.00;;
77214;SDS011;66210;53.282;9.864;2023-08-20T12:24:11;8.35;;;3.10;;
77214;SDS011;66210;53.282;9.864;2023-08-20T12:26:38;9.35;;;2.97;;
77214;SDS011;66210;53.282;9.864;2023-08-20T12:29:06;7.03;;;2.78;;
77214;SDS011;66210;53.282;9.864;2023-08-20T12:31:33;7.80;;;2.72;;
77214;SDS011;66210;53.282;9.864;2023-08-20T12:34:01;5.93;;;2.63;;
77214;SDS011;66210;53.282;9.864;2023-08-20T12:36:28;7.20;;;2.85;;
77214;SDS011;66210;53.282;9.864;2023-08-20T12:38:55;6.63;;;2.60;;
77214;SDS011;66210;53.282;9.864;2023-08-20T12:41:22;6.85;;;2.70;;
77214;SDS011;66210;53.282;9.864;2023-08-20T12:43:48;9.70;;;2.67;;
77214;SDS011;66210;53.282;9.864;2023-08-20T12:46:16;5.20;;;3.15;;
77214;SDS011;66210;53.282;9.864;2023-08-20T12:48:43;7.28;;;2.58;;
77214;SDS011;66210;53.282;9.864;2023-08-20T12:51:10;10.13;;;2.88;;
77214;SDS011;66210;53.282;9.864;2023-08-20T12:53:40;6.53;;;2.22;;
77214;SDS011;66210;53.282;9.864;2023-08-20T12:56:06;7.93;;;2.45;;
77214;SDS011;66210;53.282;9.864;2023-08-20T12:58:33;10.23;;;3.35;;
77214;SDS011;66210;53.282;9.864;2023-08-20T13:01:00;5.80;;;2.50;;
77214;SDS011;66210;53.282;9.864;2023-08-20T13:03:26;6.28;;;3.10;;
77214;SDS011;66210;53.282;9.864;2023-08-20T13:05:55;6.88;;;2.72;;
77214;SDS011;66210;53.282;9.864;2023-08-20T13:08:25;8.55;;;2.70;;
77214;SDS011;66210;53.282;9.864;2023-08-20T13:10:53;6.22;;;2.65;;
77214;SDS011;66210;53.282;9.864;2023-08-20T13:13:22;9.38;;;2.78;;
77214;SDS011;66210;53.282;9.864;2023-08-20T13:15:50;6.55;;;2.70;;
77214;SDS011;66210;53.282;9.864;2023-08-20T13:18:18;7.63;;;2.95;;
77214;SDS011;66210;53.282;9.864;2023-08-20T13:20:45;5.65;;;2.85;;
77214;SDS011;66210;53.282;9.864;2023-08-20T13:23:12;6.85;;;2.78;;
77214;SDS011;66210;53.282;9.864;2023-08-20T13:25:39;8.57;;;2.88;;
77214;SDS011;66210;53.282;9.864;2023-08-20T13:28:06;7.78;;;2.80;;
77214;SDS011;66210;53.282;9.864;2023-08-20T13:30:32;6.75;;;2.80;;
77214;SDS011;66210;53.282;9.864;2023-08-20T13:33:00;9.70;;;2.83;;
77214;SDS011;66210;53.282;9.864;2023-08-20T13:35:27;9.88;;;2.60;;
77214;SDS011;66210;53.282;9.864;2023-08-20T13:37:54;10.65;;;2.72;;
77214;SDS011;66210;53.282;9.864;2023-08-20T13:40:21;6.35;;;2.72;;
77214;SDS011;66210;53.282;9.864;2023-08-20T13:42:48;5.57;;;2.60;;
77214;SDS011;66210;53.282;9.864;2023-08-20T13:45:14;8.52;;;2.70;;
77214;SDS011;66210;53.282;9.864;2023-08-20T13:47:41;8.55;;;3.33;;
77214;SDS011;66210;53.282;9.864;2023-08-20T13:50:10;5.85;;;2.67;;
77214;SDS011;66210;53.282;9.864;2023-08-20T13:52:36;6.13;;;2.83;;
77214;SDS011;66210;53.282;9.864;2023-08-20T13:55:04;6.72;;;3.20;;
77214;SDS011;66210;53.282;9.864;2023-08-20T13:57:31;8.35;;;2.60;;
77214;SDS011;66210;53.282;9.864;2023-08-20T13:59:57;7.38;;;2.92;;
77214;SDS011;66210;53.282;9.864;2023-08-20T14:02:25;5.47;;;2.70;;
77214;SDS011;66210;53.282;9.864;2023-08-20T14:04:51;7.63;;;3.22;;
77214;SDS011;66210;53.282;9.864;2023-08-20T14:07:18;7.72;;;2.83;;
77214;SDS011;66210;53.282;9.864;2023-08-20T14:09:45;5.15;;;2.50;;
77214;SDS011;66210;53.282;9.864;2023-08-20T14:12:11;5.70;;;3.00;;
77214;SDS011;66210;53.282;9.864;2023-08-20T14:14:38;8.30;;;4.07;;
77214;SDS011;66210;53.282;9.864;2023-08-20T14:17:05;8.50;;;3.08;;
77214;SDS011;66210;53.282;9.864;2023-08-20T14:19:31;7.32;;;3.00;;
77214;SDS011;66210;53.282;9.864;2023-08-20T14:21:58;6.90;;;2.88;;
77214;SDS011;66210;53.282;9.864;2023-08-20T14:24:25;6.68;;;3.03;;
77214;SDS011;66210;53.282;9.864;2023-08-20T14:26:51;7.53;;;2.92;;
77214;SDS011;66210;53.282;9.864;2023-08-20T14:29:18;10.23;;;3.08;;
77214;SDS011;66210;53.282;9.864;2023-08-20T14:31:44;10.48;;;3.08;;
77214;SDS011;66210;53.282;9.864;2023-08-20T14:34:11;9.90;;;3.55;;
77214;SDS011;66210;53.282;9.864;2023-08-20T14:36:38;6.57;;;3.50;;
77214;SDS011;66210;53.282;9.864;2023-08-20T14:39:05;7.63;;;3.90;;
77214;SDS011;66210;53.282;9.864;2023-08-20T14:41:34;7.28;;;3.28;;
77214;SDS011;66210;53.282;9.864;2023-08-20T14:44:01;8.32;;;4.10;;
77214;SDS011;66210;53.282;9.864;2023-08-20T14:46:28;7.60;;;3.78;;
77214;SDS011;66210;53.282;9.864;2023-08-20T14:48:55;6.75;;;3.13;;
77214;SDS011;66210;53.282;9.864;2023-08-20T14:51:22;7.07;;;3.70;;
77214;SDS011;66210;53.282;9.864;2023-08-20T14:53:49;7.70;;;3.33;;
77214;SDS011;66210;53.282;9.864;2023-08-20T14:56:15;11.85;;;3.90;;